sensor_id;sensor_type;location;lat;lon;timestamp;pressure;altitude;pressure_sealevel;temperature;humidity
61086;BME280;46967;48.876;2.136;2024-03-07T00:01:57;102024.09;;;33.46;12.80
61086;BME280;46967;48.876;2.136;2024-03-07T00:04:22;102034.66;;;33.22;12.94
61086;BME280;46967;48.876;2.136;2024-03-07T00:06:47;102028.06;;;33.17;13.25
61086;BME280;46967;48.876;2.136;2024-03-07T00:09:13;102025.50;;;32.99;13.23
61086;BME280;46967;48.876;2.136;2024-03-07T00:11:40;102028.06;;;33.09;12.97
61086;BME280;46967;48.876;2.136;2024-03-07T00:14:06;102025.75;;;33.30;12.95
61086;BME280;46967;48.876;2.136;2024-03-07T00:16:31;102018.84;;;33.19;13.04
61086;BME280;46967;48.876;2.136;2024-03-07T00:18:58;102020.63;;;32.94;13.28
61086;BME280;46967;48.876;2.136;2024-03-07T00:21:24;102017.91;;;32.78;13.41
61086;BME280;46967;48.876;2.136;2024-03-07T00:23:49;102015.56;;;32.83;13.51
61086;BME280;46967;48.876;2.136;2024-03-07T00:26:14;102015.41;;;32.93;13.29
61086;BME280;46967;48.876;2.136;2024-03-07T00:28:40;102012.22;;;32.89;13.38
61086;BME280;46967;48.876;2.136;2024-03-07T00:31:05;102009.19;;;32.84;13.10
61086;BME280;46967;48.876;2.136;2024-03-07T00:33:32;102003.34;;;33.05;13.00
61086;BME280;46967;48.876;2.136;2024-03-07T00:35:58;102007.44;;;33.17;12.72
61086;BME280;46967;48.876;2.136;2024-03-07T00:38:23;102002.72;;;33.19;12.77
61086;BME280;46967;48.876;2.136;2024-03-07T00:40:48;102011.25;;;33.15;13.10
61086;BME280;46967;48.876;2.136;2024-03-07T00:43:14;102005.00;;;32.90;13.08
61086;BME280;46967;48.876;2.136;2024-03-07T00:45:40;102009.53;;;32.89;12.85
61086;BME280;46967;48.876;2.136;2024-03-07T00:48:05;102006.66;;;32.74;13.25
61086;BME280;46967;48.876;2.136;2024-03-07T00:50:30;102009.16;;;32.76;13.06
61086;BME280;46967;48.876;2.136;2024-03-07T00:52:57;102005.97;;;32.72;13.27
61086;BME280;46967;48.876;2.136;2024-03-07T00:55:22;102009.84;;;32.78;13.00
61086;BME280;46967;48.876;2.136;2024-03-07T00:57:48;102011.50;;;32.71;12.92
61086;BME280;46967;48.876;2.136;2024-03-07T01:00:14;102008.75;;;32.62;13.02
61086;BME280;46967;48.876;2.136;2024-03-07T01:02:42;102017.53;;;32.64;12.87
61086;BME280;46967;48.876;2.136;2024-03-07T01:05:12;102003.31;;;32.46;13.32
61086;BME280;46967;48.876;2.136;2024-03-07T01:07:42;102010.25;;;32.57;13.20
61086;BME280;46967;48.876;2.136;2024-03-07T01:10:08;102010.09;;;32.58;12.94
61086;BME280;46967;48.876;2.136;2024-03-07T01:12:34;102018.88;;;32.77;12.82
61086;BME280;46967;48.876;2.136;2024-03-07T01:15:00;102009.19;;;32.49;12.66
61086;BME280;46967;48.876;2.136;2024-03-07T01:17:26;102006.03;;;32.20;13.10
61086;BME280;46967;48.876;2.136;2024-03-07T01:19:51;102004.22;;;32.02;13.67
61086;BME280;46967;48.876;2.136;2024-03-07T01:22:17;102005.34;;;31.91;13.67
61086;BME280;46967;48.876;2.136;2024-03-07T01:24:42;101997.34;;;32.26;13.29
61086;BME280;46967;48.876;2.136;2024-03-07T01:27:08;101999.41;;;32.40;13.27
61086;BME280;46967;48.876;2.136;2024-03-07T01:29:34;101986.09;;;32.22;13.30
61086;BME280;46967;48.876;2.136;2024-03-07T01:31:59;101987.09;;;31.95;13.70
61086;BME280;46967;48.876;2.136;2024-03-07T01:34:25;101986.50;;;31.83;13.66
61086;BME280;46967;48.876;2.136;2024-03-07T01:36:50;101977.72;;;32.25;13.34
61086;BME280;46967;48.876;2.136;2024-03-07T01:39:15;101973.78;;;32.46;12.93
61086;BME280;46967;48.876;2.136;2024-03-07T01:41:41;101977.63;;;32.43;13.04
61086;BME280;46967;48.876;2.136;2024-03-07T01:44:06;101966.34;;;32.05;13.51
61086;BME280;46967;48.876;2.136;2024-03-07T01:46:32;101960.25;;;31.95;13.76
61086;BME280;46967;48.876;2.136;2024-03-07T01:48:58;101955.44;;;32.07;13.62
61086;BME280;46967;48.876;2.136;2024-03-07T01:51:24;101959.59;;;32.27;13.05
61086;BME280;46967;48.876;2.136;2024-03-07T01:53:51;101953.22;;;32.28;13.39
61086;BME280;46967;48.876;2.136;2024-03-07T01:56:18;101948.06;;;32.43;12.93
61086;BME280;46967;48.876;2.136;2024-03-07T01:58:46;101942.13;;;32.15;13.13
61086;BME280;46967;48.876;2.136;2024-03-07T02:01:12;101932.75;;;31.93;13.44
61086;BME280;46967;48.876;2.136;2024-03-07T02:03:39;101946.78;;;31.87;13.62
61086;BME280;46967;48.876;2.136;2024-03-07T02:06:05;101936.09;;;31.69;13.91
61086;BME280;46967;48.876;2.136;2024-03-07T02:08:30;101934.41;;;31.59;13.48
61086;BME280;46967;48.876;2.136;2024-03-07T02:10:57;101932.03;;;31.91;13.37
61086;BME280;46967;48.876;2.136;2024-03-07T02:13:23;101930.69;;;32.13;13.24
61086;BME280;46967;48.876;2.136;2024-03-07T02:15:48;101925.47;;;32.11;13.16
61086;BME280;46967;48.876;2.136;2024-03-07T02:18:13;101923.84;;;32.19;13.29
61086;BME280;46967;48.876;2.136;2024-03-07T02:20:43;101924.97;;;32.16;13.37
61086;BME280;46967;48.876;2.136;2024-03-07T02:23:09;101917.59;;;32.18;13.09
61086;BME280;46967;48.876;2.136;2024-03-07T02:25:34;101913.41;;;32.16;12.94
61086;BME280;46967;48.876;2.136;2024-03-07T02:28:05;101909.44;;;32.28;13.12
61086;BME280;46967;48.876;2.136;2024-03-07T02:30:31;101910.84;;;32.06;12.87
61086;BME280;46967;48.876;2.136;2024-03-07T02:32:59;101907.72;;;31.92;13.34
61086;BME280;46967;48.876;2.136;2024-03-07T02:35:32;101904.69;;;31.87;13.27
61086;BME280;46967;48.876;2.136;2024-03-07T02:37:59;101906.59;;;31.95;13.32
61086;BME280;46967;48.876;2.136;2024-03-07T02:40:24;101902.72;;;31.97;13.10
61086;BME280;46967;48.876;2.136;2024-03-07T02:42:49;101896.16;;;31.92;13.27
61086;BME280;46967;48.876;2.136;2024-03-07T02:45:15;101898.06;;;32.00;13.06
61086;BME280;46967;48.876;2.136;2024-03-07T02:47:41;101894.19;;;32.02;13.21
61086;BME280;46967;48.876;2.136;2024-03-07T02:50:08;101901.69;;;31.90;13.01
61086;BME280;46967;48.876;2.136;2024-03-07T02:52:34;101898.19;;;31.90;13.22
61086;BME280;46967;48.876;2.136;2024-03-07T02:54:59;101895.72;;;32.05;12.78
61086;BME280;46967;48.876;2.136;2024-03-07T02:57:25;101899.81;;;31.83;12.91
61086;BME280;46967;48.876;2.136;2024-03-07T02:59:50;101890.19;;;31.72;13.15
61086;BME280;46967;48.876;2.136;2024-03-07T03:02:16;101882.41;;;31.60;13.18
61086;BME280;46967;48.876;2.136;2024-03-07T03:04:42;101883.91;;;31.55;13.03
61086;BME280;46967;48.876;2.136;2024-03-07T03:07:07;101880.41;;;31.63;13.23
61086;BME280;46967;48.876;2.136;2024-03-07T03:09:33;101878.44;;;31.65;13.24
61086;BME280;46967;48.876;2.136;2024-03-07T03:11:59;101881.78;;;31.67;13.41
61086;BME280;46967;48.876;2.136;2024-03-07T03:14:24;101870.22;;;31.66;13.24
61086;BME280;46967;48.876;2.136;2024-03-07T03:16:49;101876.47;;;31.49;13.34
61086;BME280;46967;48.876;2.136;2024-03-07T03:19:15;101868.94;;;31.52;13.13
61086;BME280;46967;48.876;2.136;2024-03-07T03:21:40;101873.06;;;31.47;13.02
61086;BME280;46967;48.876;2.136;2024-03-07T03:24:06;101870.50;;;31.37;13.24
61086;BME280;46967;48.876;2.136;2024-03-07T03:26:32;101857.53;;;31.50;13.49
61086;BME280;46967;48.876;2.136;2024-03-07T03:28:58;101864.34;;;31.45;13.37
61086;BME280;46967;48.876;2.136;2024-03-07T03:31:23;101865.97;;;31.55;13.20
61086;BME280;46967;48.876;2.136;2024-03-07T03:33:49;101862.72;;;31.52;12.93
61086;BME280;46967;48.876;2.136;2024-03-07T03:36:16;101863.28;;;31.55;12.88
61086;BME280;46967;48.876;2.136;2024-03-07T03:38:41;101870.06;;;31.50;13.14
61086;BME280;46967;48.876;2.136;2024-03-07T03:41:06;101869.50;;;31.38;13.07
61086;BME280;46967;48.876;2.136;2024-03-07T03:43:32;101863.38;;;31.46;12.92
61086;BME280;46967;48.876;2.136;2024-03-07T03:45:57;101860.53;;;31.47;13.05
61086;BME280;46967;48.876;2.136;2024-03-07T03:48:22;101860.31;;;31.40;13.10
61086;BME280;46967;48.876;2.136;2024-03-07T03:50:48;101860.38;;;31.49;13.32
61086;BME280;46967;48.876;2.136;2024-03-07T03:53:13;101854.84;;;31.50;13.00
61086;BME280;46967;48.876;2.136;2024-03-07T03:55:38;101856.06;;;31.56;12.99
61086;BME280;46967;48.876;2.136;2024-03-07T03:58:04;101852.75;;;31.36;13.37
61086;BME280;46967;48.876;2.136;2024-03-07T04:00:31;101849.81;;;31.47;12.81
61086;BME280;46967;48.876;2.136;2024-03-07T04:02:56;101855.75;;;31.33;13.29
61086;BME280;46967;48.876;2.136;2024-03-07T04:05:21;101855.63;;;31.42;13.00
61086;BME280;46967;48.876;2.136;2024-03-07T04:07:47;101858.91;;;31.28;13.13
61086;BME280;46967;48.876;2.136;2024-03-07T04:10:15;101858.19;;;31.26;13.32
61086;BME280;46967;48.876;2.136;2024-03-07T04:12:41;101850.00;;;31.28;13.01
61086;BME280;46967;48.876;2.136;2024-03-07T04:15:12;101853.63;;;31.18;13.07
61086;BME280;46967;48.876;2.136;2024-03-07T04:17:38;101853.69;;;31.27;13.09
61086;BME280;46967;48.876;2.136;2024-03-07T04:20:05;101849.84;;;31.29;13.07
61086;BME280;46967;48.876;2.136;2024-03-07T04:22:34;101844.94;;;31.24;12.98
61086;BME280;46967;48.876;2.136;2024-03-07T04:25:01;101843.94;;;31.25;13.17
61086;BME280;46967;48.876;2.136;2024-03-07T04:27:26;101843.59;;;31.20;12.86
61086;BME280;46967;48.876;2.136;2024-03-07T04:29:52;101835.91;;;31.25;13.28
61086;BME280;46967;48.876;2.136;2024-03-07T04:32:18;101832.75;;;31.30;12.89
61086;BME280;46967;48.876;2.136;2024-03-07T04:34:46;101837.28;;;31.30;12.73
61086;BME280;46967;48.876;2.136;2024-03-07T04:37:12;101837.59;;;31.27;12.98
61086;BME280;46967;48.876;2.136;2024-03-07T04:39:39;101837.72;;;31.17;13.21
61086;BME280;46967;48.876;2.136;2024-03-07T04:42:05;101826.88;;;31.27;12.77
61086;BME280;46967;48.876;2.136;2024-03-07T04:44:31;101831.91;;;31.03;13.01
61086;BME280;46967;48.876;2.136;2024-03-07T04:46:58;101833.97;;;31.10;12.99
61086;BME280;46967;48.876;2.136;2024-03-07T04:49:29;101838.19;;;31.12;13.26
61086;BME280;46967;48.876;2.136;2024-03-07T04:51:56;101838.94;;;31.04;13.25
61086;BME280;46967;48.876;2.136;2024-03-07T04:54:22;101834.59;;;31.03;13.21
61086;BME280;46967;48.876;2.136;2024-03-07T04:56:49;101838.41;;;30.83;13.27
61086;BME280;46967;48.876;2.136;2024-03-07T04:59:16;101831.59;;;30.70;13.52
61086;BME280;46967;48.876;2.136;2024-03-07T05:01:42;101836.50;;;30.93;13.30
61086;BME280;46967;48.876;2.136;2024-03-07T05:04:08;101832.44;;;30.89;13.26
61086;BME280;46967;48.876;2.136;2024-03-07T05:06:34;101832.72;;;30.86;13.23
61086;BME280;46967;48.876;2.136;2024-03-07T05:09:03;101831.44;;;30.90;13.39
61086;BME280;46967;48.876;2.136;2024-03-07T05:11:29;101832.59;;;30.87;13.03
61086;BME280;46967;48.876;2.136;2024-03-07T05:13:55;101836.44;;;31.03;13.04
61086;BME280;46967;48.876;2.136;2024-03-07T05:16:20;101833.91;;;30.83;12.90
61086;BME280;46967;48.876;2.136;2024-03-07T05:18:46;101828.84;;;30.80;13.08
61086;BME280;46967;48.876;2.136;2024-03-07T05:21:12;101832.38;;;30.63;13.29
61086;BME280;46967;48.876;2.136;2024-03-07T05:23:56;101827.19;;;30.61;13.23
61086;BME280;46967;48.876;2.136;2024-03-07T05:26:23;101824.97;;;30.57;13.21
61086;BME280;46967;48.876;2.136;2024-03-07T05:28:48;101828.63;;;30.56;13.53
61086;BME280;46967;48.876;2.136;2024-03-07T05:31:13;101832.84;;;30.58;13.41
61086;BME280;46967;48.876;2.136;2024-03-07T05:33:39;101831.91;;;30.49;13.19
61086;BME280;46967;48.876;2.136;2024-03-07T05:36:06;101838.56;;;30.45;13.27
61086;BME280;46967;48.876;2.136;2024-03-07T05:38:44;101835.19;;;30.43;13.68
61086;BME280;46967;48.876;2.136;2024-03-07T05:41:10;101826.69;;;30.48;13.70
61086;BME280;46967;48.876;2.136;2024-03-07T05:43:40;101831.81;;;30.41;13.30
61086;BME280;46967;48.876;2.136;2024-03-07T05:46:06;101837.47;;;30.38;13.61
61086;BME280;46967;48.876;2.136;2024-03-07T05:48:36;101832.38;;;30.63;13.12
61086;BME280;46967;48.876;2.136;2024-03-07T05:51:02;101838.38;;;30.47;13.57
61086;BME280;46967;48.876;2.136;2024-03-07T05:53:27;101829.00;;;30.61;13.58
61086;BME280;46967;48.876;2.136;2024-03-07T05:55:53;101827.78;;;30.55;13.29
61086;BME280;46967;48.876;2.136;2024-03-07T05:58:18;101821.19;;;30.49;13.78
61086;BME280;46967;48.876;2.136;2024-03-07T06:00:48;101828.63;;;30.56;13.60
61086;BME280;46967;48.876;2.136;2024-03-07T06:03:17;101829.31;;;30.58;13.53
61086;BME280;46967;48.876;2.136;2024-03-07T06:05:45;101818.50;;;30.49;13.67
61086;BME280;46967;48.876;2.136;2024-03-07T06:08:16;101818.88;;;30.55;13.73
61086;BME280;46967;48.876;2.136;2024-03-07T06:10:42;101819.84;;;30.45;13.85
61086;BME280;46967;48.876;2.136;2024-03-07T06:13:08;101823.41;;;30.54;13.61
61086;BME280;46967;48.876;2.136;2024-03-07T06:15:34;101812.19;;;30.50;13.97
61086;BME280;46967;48.876;2.136;2024-03-07T06:18:00;101807.31;;;30.36;14.26
61086;BME280;46967;48.876;2.136;2024-03-07T06:20:25;101808.59;;;30.32;14.09
61086;BME280;46967;48.876;2.136;2024-03-07T06:22:53;101819.34;;;30.50;13.99
61086;BME280;46967;48.876;2.136;2024-03-07T06:25:18;101811.25;;;30.42;13.91
61086;BME280;46967;48.876;2.136;2024-03-07T06:27:48;101807.31;;;30.36;14.05
61086;BME280;46967;48.876;2.136;2024-03-07T06:30:16;101803.91;;;30.44;13.66
61086;BME280;46967;48.876;2.136;2024-03-07T06:32:43;101806.59;;;30.62;13.50
61086;BME280;46967;48.876;2.136;2024-03-07T06:35:08;101811.47;;;30.48;13.67
61086;BME280;46967;48.876;2.136;2024-03-07T06:37:35;101807.59;;;30.43;14.01
61086;BME280;46967;48.876;2.136;2024-03-07T06:40:00;101805.88;;;30.42;13.73
61086;BME280;46967;48.876;2.136;2024-03-07T06:42:25;101806.31;;;30.37;13.96
61086;BME280;46967;48.876;2.136;2024-03-07T06:44:51;101811.31;;;30.50;13.64
61086;BME280;46967;48.876;2.136;2024-03-07T06:47:16;101811.81;;;30.45;13.96
61086;BME280;46967;48.876;2.136;2024-03-07T06:49:42;101807.88;;;30.58;13.62
61086;BME280;46967;48.876;2.136;2024-03-07T06:52:07;101805.03;;;30.59;13.44
61086;BME280;46967;48.876;2.136;2024-03-07T06:54:33;101806.13;;;30.66;13.44
61086;BME280;46967;48.876;2.136;2024-03-07T06:56:58;101803.28;;;30.68;13.37
61086;BME280;46967;48.876;2.136;2024-03-07T06:59:23;101808.34;;;30.71;13.67
61086;BME280;46967;48.876;2.136;2024-03-07T07:01:49;101809.03;;;30.73;13.84
61086;BME280;46967;48.876;2.136;2024-03-07T07:04:14;101808.97;;;30.65;14.00
61086;BME280;46967;48.876;2.136;2024-03-07T07:06:40;101803.78;;;30.89;13.58
61086;BME280;46967;48.876;2.136;2024-03-07T07:09:08;101795.91;;;30.88;13.62
61086;BME280;46967;48.876;2.136;2024-03-07T07:11:34;101800.06;;;31.00;13.68
61086;BME280;46967;48.876;2.136;2024-03-07T07:14:01;101789.22;;;31.10;13.76
61086;BME280;46967;48.876;2.136;2024-03-07T07:16:27;101790.06;;;31.37;13.54
61086;BME280;46967;48.876;2.136;2024-03-07T07:18:55;101787.69;;;31.34;13.49
61086;BME280;46967;48.876;2.136;2024-03-07T07:21:21;101785.50;;;31.29;13.88
61086;BME280;46967;48.876;2.136;2024-03-07T07:23:46;101780.13;;;31.29;13.56
61086;BME280;46967;48.876;2.136;2024-03-07T07:26:11;101782.13;;;31.27;13.83
61086;BME280;46967;48.876;2.136;2024-03-07T07:28:37;101781.50;;;31.33;13.87
61086;BME280;46967;48.876;2.136;2024-03-07T07:31:04;101780.59;;;31.51;13.66
61086;BME280;46967;48.876;2.136;2024-03-07T07:33:29;101776.81;;;31.62;13.51
61086;BME280;46967;48.876;2.136;2024-03-07T07:35:56;101767.28;;;31.67;13.64
61086;BME280;46967;48.876;2.136;2024-03-07T07:38:22;101767.41;;;31.57;14.02
61086;BME280;46967;48.876;2.136;2024-03-07T07:40:47;101762.91;;;31.58;14.21
61086;BME280;46967;48.876;2.136;2024-03-07T07:43:12;101762.06;;;31.66;14.14
61086;BME280;46967;48.876;2.136;2024-03-07T07:45:39;101769.13;;;31.67;14.49
61086;BME280;46967;48.876;2.136;2024-03-07T07:48:04;101758.44;;;31.83;14.45
61086;BME280;46967;48.876;2.136;2024-03-07T07:50:30;101762.00;;;31.92;14.21
61086;BME280;46967;48.876;2.136;2024-03-07T07:52:58;101766.56;;;32.00;14.37
61086;BME280;46967;48.876;2.136;2024-03-07T07:55:25;101760.06;;;32.10;14.28
61086;BME280;46967;48.876;2.136;2024-03-07T07:57:55;101762.09;;;32.33;14.41
61086;BME280;46967;48.876;2.136;2024-03-07T08:00:30;101757.06;;;32.30;14.17
61086;BME280;46967;48.876;2.136;2024-03-07T08:02:58;101749.34;;;32.27;14.39
61086;BME280;46967;48.876;2.136;2024-03-07T08:05:25;101754.06;;;32.33;14.28
61086;BME280;46967;48.876;2.136;2024-03-07T08:07:53;101749.34;;;32.35;14.17
61086;BME280;46967;48.876;2.136;2024-03-07T08:10:20;101745.66;;;32.28;14.44
61086;BME280;46967;48.876;2.136;2024-03-07T08:12:45;101743.63;;;32.38;14.35
61086;BME280;46967;48.876;2.136;2024-03-07T08:15:12;101736.94;;;32.50;14.32
61086;BME280;46967;48.876;2.136;2024-03-07T08:17:42;101733.91;;;32.54;14.37
61086;BME280;46967;48.876;2.136;2024-03-07T08:20:17;101730.75;;;32.66;14.38
61086;BME280;46967;48.876;2.136;2024-03-07T08:22:44;101725.19;;;32.60;14.56
61086;BME280;46967;48.876;2.136;2024-03-07T08:25:14;101726.56;;;32.72;14.12
61086;BME280;46967;48.876;2.136;2024-03-07T08:27:41;101728.88;;;32.83;14.28
61086;BME280;46967;48.876;2.136;2024-03-07T08:30:08;101732.41;;;32.84;14.47
61086;BME280;46967;48.876;2.136;2024-03-07T08:32:44;101719.47;;;32.79;14.61
61086;BME280;46967;48.876;2.136;2024-03-07T08:35:10;101713.88;;;32.97;14.21
61086;BME280;46967;48.876;2.136;2024-03-07T08:40:03;101711.50;;;33.19;14.08
61086;BME280;46967;48.876;2.136;2024-03-07T08:42:38;101700.56;;;33.20;14.43
61086;BME280;46967;48.876;2.136;2024-03-07T08:45:04;101700.72;;;33.27;14.38
61086;BME280;46967;48.876;2.136;2024-03-07T08:47:31;101700.84;;;33.42;14.12
61086;BME280;46967;48.876;2.136;2024-03-07T08:49:56;101696.31;;;33.34;13.98
61086;BME280;46967;48.876;2.136;2024-03-07T08:52:22;101695.47;;;33.34;14.35
61086;BME280;46967;48.876;2.136;2024-03-07T08:54:47;101686.47;;;33.50;14.09
61086;BME280;46967;48.876;2.136;2024-03-07T08:57:13;101694.94;;;33.78;13.94
61086;BME280;46967;48.876;2.136;2024-03-07T08:59:42;101697.53;;;33.94;13.85
61086;BME280;46967;48.876;2.136;2024-03-07T09:02:08;101700.22;;;33.94;13.80
61086;BME280;46967;48.876;2.136;2024-03-07T09:04:33;101700.63;;;34.06;13.82
61086;BME280;46967;48.876;2.136;2024-03-07T09:06:58;101698.19;;;34.20;13.66
61086;BME280;46967;48.876;2.136;2024-03-07T09:09:24;101702.50;;;34.29;13.55
61086;BME280;46967;48.876;2.136;2024-03-07T09:11:49;101697.59;;;34.33;13.49
61086;BME280;46967;48.876;2.136;2024-03-07T09:14:14;101691.59;;;34.60;13.38
61086;BME280;46967;48.876;2.136;2024-03-07T09:16:40;101700.41;;;34.54;13.40
61086;BME280;46967;48.876;2.136;2024-03-07T09:19:06;101694.19;;;34.77;13.43
61086;BME280;46967;48.876;2.136;2024-03-07T09:21:31;101685.63;;;34.88;13.64
61086;BME280;46967;48.876;2.136;2024-03-07T09:23:56;101688.88;;;34.83;13.27
61086;BME280;46967;48.876;2.136;2024-03-07T09:26:23;101682.09;;;34.88;13.40
61086;BME280;46967;48.876;2.136;2024-03-07T09:28:48;101682.44;;;34.84;13.59
61086;BME280;46967;48.876;2.136;2024-03-07T09:31:16;101682.66;;;34.98;13.15
61086;BME280;46967;48.876;2.136;2024-03-07T09:33:42;101674.84;;;35.03;13.22
61086;BME280;46967;48.876;2.136;2024-03-07T09:36:07;101671.13;;;35.04;12.94
61086;BME280;46967;48.876;2.136;2024-03-07T09:38:33;101668.69;;;35.09;13.09
61086;BME280;46967;48.876;2.136;2024-03-07T09:40:59;101663.66;;;35.36;13.40
61086;BME280;46967;48.876;2.136;2024-03-07T09:43:26;101661.97;;;35.50;13.09
61086;BME280;46967;48.876;2.136;2024-03-07T09:45:53;101653.00;;;35.49;13.01
61086;BME280;46967;48.876;2.136;2024-03-07T09:48:21;101656.50;;;35.65;12.85
61086;BME280;46967;48.876;2.136;2024-03-07T09:50:49;101643.16;;;35.78;12.79
61086;BME280;46967;48.876;2.136;2024-03-07T09:53:16;101640.19;;;35.73;12.60
61086;BME280;46967;48.876;2.136;2024-03-07T09:55:43;101638.00;;;36.05;12.46
61086;BME280;46967;48.876;2.136;2024-03-07T09:58:09;101633.38;;;35.99;12.65
61086;BME280;46967;48.876;2.136;2024-03-07T10:00:36;101629.16;;;36.18;12.73
61086;BME280;46967;48.876;2.136;2024-03-07T10:03:06;101625.41;;;35.90;12.66
61086;BME280;46967;48.876;2.136;2024-03-07T10:05:32;101615.75;;;35.38;13.09
61086;BME280;46967;48.876;2.136;2024-03-07T10:07:58;101609.84;;;35.49;12.42
61086;BME280;46967;48.876;2.136;2024-03-07T10:10:24;101610.13;;;35.76;12.46
61086;BME280;46967;48.876;2.136;2024-03-07T10:12:50;101608.69;;;36.02;12.48
61086;BME280;46967;48.876;2.136;2024-03-07T10:15:17;101610.72;;;36.21;12.29
61086;BME280;46967;48.876;2.136;2024-03-07T10:17:44;101607.38;;;36.19;12.67
61086;BME280;46967;48.876;2.136;2024-03-07T10:20:12;101598.50;;;36.25;12.17
61086;BME280;46967;48.876;2.136;2024-03-07T10:22:40;101605.31;;;36.50;11.91
61086;BME280;46967;48.876;2.136;2024-03-07T10:25:06;101597.16;;;36.43;12.21
61086;BME280;46967;48.876;2.136;2024-03-07T10:27:31;101597.34;;;36.35;12.48
61086;BME280;46967;48.876;2.136;2024-03-07T10:29:57;101596.91;;;36.31;12.72
61086;BME280;46967;48.876;2.136;2024-03-07T10:32:22;101607.47;;;36.04;12.66
61086;BME280;46967;48.876;2.136;2024-03-07T10:34:52;101599.47;;;36.81;12.22
61086;BME280;46967;48.876;2.136;2024-03-07T10:37:18;101595.56;;;36.84;12.06
61086;BME280;46967;48.876;2.136;2024-03-07T10:39:49;101588.56;;;37.16;12.02
61086;BME280;46967;48.876;2.136;2024-03-07T10:42:15;101582.28;;;36.54;12.29
61086;BME280;46967;48.876;2.136;2024-03-07T10:44:48;101578.75;;;37.02;12.19
61086;BME280;46967;48.876;2.136;2024-03-07T10:47:20;101582.63;;;36.79;12.46
61086;BME280;46967;48.876;2.136;2024-03-07T10:49:54;101577.84;;;37.43;11.91
61086;BME280;46967;48.876;2.136;2024-03-07T10:52:39;101570.00;;;37.75;12.04
61086;BME280;46967;48.876;2.136;2024-03-07T10:55:14;101581.66;;;37.88;11.62
61086;BME280;46967;48.876;2.136;2024-03-07T10:57:51;101579.94;;;37.34;12.18
61086;BME280;46967;48.876;2.136;2024-03-07T11:00:22;101569.16;;;37.87;11.58
61086;BME280;46967;48.876;2.136;2024-03-07T11:03:05;101559.75;;;37.63;12.07
61086;BME280;46967;48.876;2.136;2024-03-07T11:05:33;101563.09;;;37.59;12.22
61086;BME280;46967;48.876;2.136;2024-03-07T11:08:03;101559.72;;;37.30;12.40
61086;BME280;46967;48.876;2.136;2024-03-07T11:10:37;101560.63;;;37.97;11.65
61086;BME280;46967;48.876;2.136;2024-03-07T11:13:04;101559.72;;;38.37;11.75
61086;BME280;46967;48.876;2.136;2024-03-07T11:15:30;101558.41;;;38.59;11.25
61086;BME280;46967;48.876;2.136;2024-03-07T11:17:57;101549.84;;;38.56;11.50
61086;BME280;46967;48.876;2.136;2024-03-07T11:20:25;101550.28;;;37.06;12.00
61086;BME280;46967;48.876;2.136;2024-03-07T11:22:51;101555.28;;;37.15;12.31
61086;BME280;46967;48.876;2.136;2024-03-07T11:25:21;101543.50;;;37.30;12.10
61086;BME280;46967;48.876;2.136;2024-03-07T11:28:00;101537.09;;;37.91;11.89
61086;BME280;46967;48.876;2.136;2024-03-07T11:30:27;101539.75;;;37.38;11.91
61086;BME280;46967;48.876;2.136;2024-03-07T11:32:53;101526.03;;;36.71;12.86
61086;BME280;46967;48.876;2.136;2024-03-07T11:35:20;101530.47;;;36.85;12.84
61086;BME280;46967;48.876;2.136;2024-03-07T11:37:56;101517.50;;;37.42;12.09
61086;BME280;46967;48.876;2.136;2024-03-07T11:42:50;101502.47;;;38.13;11.83
61086;BME280;46967;48.876;2.136;2024-03-07T11:45:18;101498.31;;;38.04;11.93
61086;BME280;46967;48.876;2.136;2024-03-07T11:47:51;101500.97;;;38.31;11.63
61086;BME280;46967;48.876;2.136;2024-03-07T11:50:32;101493.97;;;37.63;12.14
61086;BME280;46967;48.876;2.136;2024-03-07T11:53:02;101490.44;;;37.42;12.24
61086;BME280;46967;48.876;2.136;2024-03-07T11:55:28;101481.41;;;36.88;12.57
61086;BME280;46967;48.876;2.136;2024-03-07T11:58:09;101476.25;;;37.67;12.18
61086;BME280;46967;48.876;2.136;2024-03-07T12:00:38;101474.59;;;37.86;11.77
61086;BME280;46967;48.876;2.136;2024-03-07T12:03:08;101468.88;;;35.97;13.21
61086;BME280;46967;48.876;2.136;2024-03-07T12:05:33;101453.16;;;37.24;12.58
61086;BME280;46967;48.876;2.136;2024-03-07T12:07:59;101446.94;;;37.44;12.58
61086;BME280;46967;48.876;2.136;2024-03-07T12:10:25;101447.72;;;37.91;11.89
61086;BME280;46967;48.876;2.136;2024-03-07T12:12:51;101437.56;;;37.53;12.22
61086;BME280;46967;48.876;2.136;2024-03-07T12:15:16;101433.38;;;37.84;11.84
61086;BME280;46967;48.876;2.136;2024-03-07T12:17:46;101422.75;;;38.80;11.55
61086;BME280;46967;48.876;2.136;2024-03-07T12:20:15;101423.28;;;38.95;11.75
61086;BME280;46967;48.876;2.136;2024-03-07T12:22:50;101415.31;;;39.00;11.24
61086;BME280;46967;48.876;2.136;2024-03-07T12:25:18;101420.91;;;39.37;11.10
61086;BME280;46967;48.876;2.136;2024-03-07T12:30:48;101402.03;;;39.67;11.16
61086;BME280;46967;48.876;2.136;2024-03-07T12:33:15;101404.28;;;39.89;10.88
61086;BME280;46967;48.876;2.136;2024-03-07T12:35:52;101395.78;;;39.67;11.11
61086;BME280;46967;48.876;2.136;2024-03-07T12:38:21;101404.50;;;40.25;11.08
61086;BME280;46967;48.876;2.136;2024-03-07T12:41:10;101389.38;;;40.29;10.95
61086;BME280;46967;48.876;2.136;2024-03-07T12:43:40;101390.00;;;40.61;10.82
61086;BME280;46967;48.876;2.136;2024-03-07T12:46:07;101381.28;;;40.10;10.76
61086;BME280;46967;48.876;2.136;2024-03-07T12:48:37;101382.81;;;39.69;11.03
61086;BME280;46967;48.876;2.136;2024-03-07T12:51:04;101379.03;;;40.37;10.39
61086;BME280;46967;48.876;2.136;2024-03-07T12:53:30;101372.41;;;41.30;9.95
61086;BME280;46967;48.876;2.136;2024-03-07T12:55:56;101370.66;;;40.81;10.37
61086;BME280;46967;48.876;2.136;2024-03-07T12:58:22;101360.69;;;40.63;10.36